sensor_id;sensor_type;location;lat;lon;timestamp;P1;durP1;ratioP1;P2;durP2;ratioP2
55368;SDS011;41247;49.736;8.752;2022-12-18T00:02:20;65.50;;;26.37;;
55368;SDS011;41247;49.736;8.752;2022-12-18T00:06:01;55.90;;;21.35;;
55368;SDS011;41247;49.736;8.752;2022-12-18T00:09:42;52.85;;;20.65;;
55368;SDS011;41247;49.736;8.752;2022-12-18T00:13:22;44.63;;;18.15;;
55368;SDS011;41247;49.736;8.752;2022-12-18T00:17:03;39.47;;;15.98;;
55368;SDS011;41247;49.736;8.752;2022-12-18T00:20:43;35.10;;;15.90;;
55368;SDS011;41247;49.736;8.752;2022-12-18T00:24:24;33.28;;;14.45;;
55368;SDS011;41247;49.736;8.752;2022-12-18T00:28:05;36.55;;;14.57;;
55368;SDS011;41247;49.736;8.752;2022-12-18T00:31:45;57.00;;;22.20;;
55368;SDS011;41247;49.736;8.752;2022-12-18T00:35:26;61.55;;;23.40;;
55368;SDS011;41247;49.736;8.752;2022-12-18T00:39:07;43.10;;;18.17;;
55368;SDS011;41247;49.736;8.752;2022-12-18T00:42:49;39.10;;;15.85;;
55368;SDS011;41247;49.736;8.752;2022-12-18T00:46:30;45.63;;;17.48;;
55368;SDS011;41247;49.736;8.752;2022-12-18T00:50:11;43.65;;;17.20;;
55368;SDS011;41247;49.736;8.752;2022-12-18T00:53:52;55.58;;;19.77;;
55368;SDS011;41247;49.736;8.752;2022-12-18T00:57:33;57.35;;;19.30;;
55368;SDS011;41247;49.736;8.752;2022-12-18T01:01:13;35.78;;;13.95;;
55368;SDS011;41247;49.736;8.752;2022-12-18T01:04:54;46.00;;;18.83;;
55368;SDS011;41247;49.736;8.752;2022-12-18T01:08:35;47.50;;;18.98;;
55368;SDS011;41247;49.736;8.752;2022-12-18T01:12:16;68.85;;;23.92;;
55368;SDS011;41247;49.736;8.752;2022-12-18T01:15:56;59.53;;;21.80;;
55368;SDS011;41247;49.736;8.752;2022-12-18T01:19:37;63.88;;;23.65;;
55368;SDS011;41247;49.736;8.752;2022-12-18T01:23:17;79.40;;;27.48;;
55368;SDS011;41247;49.736;8.752;2022-12-18T01:26:58;80.70;;;29.45;;
55368;SDS011;41247;49.736;8.752;2022-12-18T01:30:39;66.45;;;23.85;;
55368;SDS011;41247;49.736;8.752;2022-12-18T01:34:19;55.53;;;20.75;;
55368;SDS011;41247;49.736;8.752;2022-12-18T01:38:00;60.78;;;24.38;;
55368;SDS011;41247;49.736;8.752;2022-12-18T01:41:41;61.55;;;24.23;;
55368;SDS011;41247;49.736;8.752;2022-12-18T01:45:24;74.25;;;29.02;;
55368;SDS011;41247;49.736;8.752;2022-12-18T01:49:08;94.07;;;32.42;;
55368;SDS011;41247;49.736;8.752;2022-12-18T01:52:50;82.85;;;31.38;;
55368;SDS011;41247;49.736;8.752;2022-12-18T01:56:38;77.60;;;29.85;;
55368;SDS011;41247;49.736;8.752;2022-12-18T02:00:19;72.93;;;29.08;;
55368;SDS011;41247;49.736;8.752;2022-12-18T02:04:21;71.30;;;30.07;;
55368;SDS011;41247;49.736;8.752;2022-12-18T02:08:19;73.88;;;29.52;;
55368;SDS011;41247;49.736;8.752;2022-12-18T02:12:24;58.03;;;25.95;;
55368;SDS011;41247;49.736;8.752;2022-12-18T02:27:57;89.30;;;30.70;;
55368;SDS011;41247;49.736;8.752;2022-12-18T02:31:44;77.80;;;29.27;;
55368;SDS011;41247;49.736;8.752;2022-12-18T02:35:30;77.82;;;29.77;;
55368;SDS011;41247;49.736;8.752;2022-12-18T02:39:12;73.65;;;28.13;;
55368;SDS011;41247;49.736;8.752;2022-12-18T02:42:55;67.90;;;26.55;;
55368;SDS011;41247;49.736;8.752;2022-12-18T02:46:45;61.95;;;25.27;;
55368;SDS011;41247;49.736;8.752;2022-12-18T02:50:31;61.03;;;24.90;;
55368;SDS011;41247;49.736;8.752;2022-12-18T02:54:24;56.17;;;23.35;;
55368;SDS011;41247;49.736;8.752;2022-12-18T02:58:57;65.15;;;25.35;;
55368;SDS011;41247;49.736;8.752;2022-12-18T03:03:05;57.70;;;22.33;;
55368;SDS011;41247;49.736;8.752;2022-12-18T03:06:54;57.63;;;22.23;;
55368;SDS011;41247;49.736;8.752;2022-12-18T03:10:40;53.13;;;21.63;;
55368;SDS011;41247;49.736;8.752;2022-12-18T03:14:26;77.53;;;27.92;;
55368;SDS011;41247;49.736;8.752;2022-12-18T03:18:12;66.85;;;26.88;;
55368;SDS011;41247;49.736;8.752;2022-12-18T03:21:58;70.28;;;27.00;;
55368;SDS011;41247;49.736;8.752;2022-12-18T03:25:42;68.60;;;27.85;;
55368;SDS011;41247;49.736;8.752;2022-12-18T03:29:26;79.45;;;30.88;;
55368;SDS011;41247;49.736;8.752;2022-12-18T03:37:30;75.18;;;30.45;;
55368;SDS011;41247;49.736;8.752;2022-12-18T03:49:08;70.75;;;28.85;;
55368;SDS011;41247;49.736;8.752;2022-12-18T03:53:02;76.95;;;28.00;;
55368;SDS011;41247;49.736;8.752;2022-12-18T03:57:08;66.05;;;26.83;;
55368;SDS011;41247;49.736;8.752;2022-12-18T04:00:55;74.22;;;28.95;;
55368;SDS011;41247;49.736;8.752;2022-12-18T04:04:39;70.38;;;28.65;;
55368;SDS011;41247;49.736;8.752;2022-12-18T04:08:22;59.03;;;23.43;;
55368;SDS011;41247;49.736;8.752;2022-12-18T04:12:04;81.75;;;32.60;;
55368;SDS011;41247;49.736;8.752;2022-12-18T04:15:44;72.75;;;30.02;;
55368;SDS011;41247;49.736;8.752;2022-12-18T04:19:25;75.85;;;30.33;;
55368;SDS011;41247;49.736;8.752;2022-12-18T04:23:05;70.45;;;29.65;;
55368;SDS011;41247;49.736;8.752;2022-12-18T04:26:46;73.90;;;30.80;;
55368;SDS011;41247;49.736;8.752;2022-12-18T04:30:27;69.70;;;28.20;;
55368;SDS011;41247;49.736;8.752;2022-12-18T04:34:07;74.03;;;27.05;;
55368;SDS011;41247;49.736;8.752;2022-12-18T04:37:48;60.65;;;25.25;;
55368;SDS011;41247;49.736;8.752;2022-12-18T04:41:28;55.65;;;23.50;;
55368;SDS011;41247;49.736;8.752;2022-12-18T04:45:09;61.50;;;25.50;;
55368;SDS011;41247;49.736;8.752;2022-12-18T04:48:50;45.15;;;19.10;;
55368;SDS011;41247;49.736;8.752;2022-12-18T04:52:30;55.63;;;24.25;;
55368;SDS011;41247;49.736;8.752;2022-12-18T04:56:12;64.75;;;26.35;;
55368;SDS011;41247;49.736;8.752;2022-12-18T04:59:54;60.03;;;24.60;;
55368;SDS011;41247;49.736;8.752;2022-12-18T05:03:35;57.90;;;24.80;;
55368;SDS011;41247;49.736;8.752;2022-12-18T05:07:16;65.05;;;27.13;;
55368;SDS011;41247;49.736;8.752;2022-12-18T05:11:04;54.92;;;24.15;;
55368;SDS011;41247;49.736;8.752;2022-12-18T05:14:48;51.75;;;22.02;;
55368;SDS011;41247;49.736;8.752;2022-12-18T05:18:29;60.70;;;23.10;;
55368;SDS011;41247;49.736;8.752;2022-12-18T05:22:10;56.58;;;23.80;;
55368;SDS011;41247;49.736;8.752;2022-12-18T05:25:52;59.65;;;23.50;;
55368;SDS011;41247;49.736;8.752;2022-12-18T05:29:38;58.42;;;23.08;;
55368;SDS011;41247;49.736;8.752;2022-12-18T05:33:19;57.58;;;24.05;;
55368;SDS011;41247;49.736;8.752;2022-12-18T05:37:01;53.67;;;22.38;;
55368;SDS011;41247;49.736;8.752;2022-12-18T05:40:42;45.70;;;17.20;;
55368;SDS011;41247;49.736;8.752;2022-12-18T05:44:24;54.03;;;21.35;;
55368;SDS011;41247;49.736;8.752;2022-12-18T05:48:06;58.47;;;24.60;;
55368;SDS011;41247;49.736;8.752;2022-12-18T05:56:27;55.25;;;23.08;;
55368;SDS011;41247;49.736;8.752;2022-12-18T06:00:23;55.25;;;22.30;;
55368;SDS011;41247;49.736;8.752;2022-12-18T06:04:12;55.38;;;22.02;;
55368;SDS011;41247;49.736;8.752;2022-12-18T06:07:53;48.83;;;21.02;;
55368;SDS011;41247;49.736;8.752;2022-12-18T06:12:20;46.33;;;19.30;;
55368;SDS011;41247;49.736;8.752;2022-12-18T06:16:33;62.13;;;24.70;;
55368;SDS011;41247;49.736;8.752;2022-12-18T06:20:26;64.53;;;26.25;;
55368;SDS011;41247;49.736;8.752;2022-12-18T06:24:22;65.07;;;26.23;;
55368;SDS011;41247;49.736;8.752;2022-12-18T06:28:02;74.85;;;29.30;;
55368;SDS011;41247;49.736;8.752;2022-12-18T06:31:43;64.68;;;26.92;;
55368;SDS011;41247;49.736;8.752;2022-12-18T06:35:54;60.53;;;26.33;;
55368;SDS011;41247;49.736;8.752;2022-12-18T06:40:14;59.05;;;26.52;;
55368;SDS011;41247;49.736;8.752;2022-12-18T06:43:58;62.42;;;26.05;;
55368;SDS011;41247;49.736;8.752;2022-12-18T06:48:00;66.40;;;28.33;;
55368;SDS011;41247;49.736;8.752;2022-12-18T06:52:01;67.50;;;26.67;;
55368;SDS011;41247;49.736;8.752;2022-12-18T06:55:45;48.03;;;21.20;;
55368;SDS011;41247;49.736;8.752;2022-12-18T06:59:26;55.58;;;24.08;;
55368;SDS011;41247;49.736;8.752;2022-12-18T07:03:06;59.88;;;25.05;;
55368;SDS011;41247;49.736;8.752;2022-12-18T07:07:29;76.88;;;32.20;;
55368;SDS011;41247;49.736;8.752;2022-12-18T07:11:10;66.20;;;27.58;;
55368;SDS011;41247;49.736;8.752;2022-12-18T07:14:54;62.90;;;26.05;;
55368;SDS011;41247;49.736;8.752;2022-12-18T07:24:03;66.45;;;28.15;;
55368;SDS011;41247;49.736;8.752;2022-12-18T07:27:44;66.03;;;28.67;;
55368;SDS011;41247;49.736;8.752;2022-12-18T07:31:25;60.92;;;27.85;;
55368;SDS011;41247;49.736;8.752;2022-12-18T07:35:06;54.65;;;23.45;;
55368;SDS011;41247;49.736;8.752;2022-12-18T07:38:47;53.70;;;23.02;;
55368;SDS011;41247;49.736;8.752;2022-12-18T07:42:29;50.97;;;22.08;;
55368;SDS011;41247;49.736;8.752;2022-12-18T07:46:09;54.67;;;22.08;;
55368;SDS011;41247;49.736;8.752;2022-12-18T07:49:51;54.45;;;21.88;;
55368;SDS011;41247;49.736;8.752;2022-12-18T07:53:32;50.03;;;19.90;;
55368;SDS011;41247;49.736;8.752;2022-12-18T07:57:14;47.00;;;20.08;;
55368;SDS011;41247;49.736;8.752;2022-12-18T08:01:01;57.08;;;21.80;;
55368;SDS011;41247;49.736;8.752;2022-12-18T08:04:47;56.85;;;22.40;;
55368;SDS011;41247;49.736;8.752;2022-12-18T08:08:27;53.97;;;22.58;;
55368;SDS011;41247;49.736;8.752;2022-12-18T08:12:09;56.58;;;24.48;;
55368;SDS011;41247;49.736;8.752;2022-12-18T08:16:00;55.65;;;23.63;;
55368;SDS011;41247;49.736;8.752;2022-12-18T08:19:42;55.22;;;23.83;;
55368;SDS011;41247;49.736;8.752;2022-12-18T08:23:22;51.13;;;22.55;;
55368;SDS011;41247;49.736;8.752;2022-12-18T08:27:03;57.53;;;24.10;;
55368;SDS011;41247;49.736;8.752;2022-12-18T08:30:44;52.95;;;21.95;;
55368;SDS011;41247;49.736;8.752;2022-12-18T08:34:24;44.13;;;19.10;;
55368;SDS011;41247;49.736;8.752;2022-12-18T08:38:05;45.45;;;18.00;;
55368;SDS011;41247;49.736;8.752;2022-12-18T08:41:45;47.15;;;19.65;;
55368;SDS011;41247;49.736;8.752;2022-12-18T08:45:26;51.97;;;19.35;;
55368;SDS011;41247;49.736;8.752;2022-12-18T08:49:08;45.58;;;19.60;;
55368;SDS011;41247;49.736;8.752;2022-12-18T08:52:50;52.17;;;21.20;;
55368;SDS011;41247;49.736;8.752;2022-12-18T08:56:31;52.28;;;21.85;;
55368;SDS011;41247;49.736;8.752;2022-12-18T09:00:11;57.50;;;23.98;;
55368;SDS011;41247;49.736;8.752;2022-12-18T09:03:53;57.80;;;23.00;;
55368;SDS011;41247;49.736;8.752;2022-12-18T09:07:35;69.35;;;28.70;;
55368;SDS011;41247;49.736;8.752;2022-12-18T09:11:20;66.90;;;29.00;;
55368;SDS011;41247;49.736;8.752;2022-12-18T09:15:07;67.22;;;28.92;;
55368;SDS011;41247;49.736;8.752;2022-12-18T09:18:48;56.60;;;22.73;;
55368;SDS011;41247;49.736;8.752;2022-12-18T09:22:29;52.63;;;23.40;;
55368;SDS011;41247;49.736;8.752;2022-12-18T09:26:09;57.95;;;24.20;;
55368;SDS011;41247;49.736;8.752;2022-12-18T09:29:50;65.13;;;26.25;;
55368;SDS011;41247;49.736;8.752;2022-12-18T09:33:31;78.13;;;29.30;;
55368;SDS011;41247;49.736;8.752;2022-12-18T09:37:11;69.90;;;28.98;;
55368;SDS011;41247;49.736;8.752;2022-12-18T09:40:53;73.40;;;29.38;;
55368;SDS011;41247;49.736;8.752;2022-12-18T09:44:39;88.97;;;32.65;;
55368;SDS011;41247;49.736;8.752;2022-12-18T09:48:30;83.13;;;33.38;;
55368;SDS011;41247;49.736;8.752;2022-12-18T09:52:18;74.90;;;30.60;;
55368;SDS011;41247;49.736;8.752;2022-12-18T09:56:19;79.30;;;30.10;;
55368;SDS011;41247;49.736;8.752;2022-12-18T10:04:15;76.15;;;30.63;;
55368;SDS011;41247;49.736;8.752;2022-12-18T10:08:04;74.10;;;30.58;;
55368;SDS011;41247;49.736;8.752;2022-12-18T10:16:03;75.85;;;32.38;;
55368;SDS011;41247;49.736;8.752;2022-12-18T10:20:16;74.97;;;32.10;;
55368;SDS011;41247;49.736;8.752;2022-12-18T10:24:22;76.37;;;31.33;;
55368;SDS011;41247;49.736;8.752;2022-12-18T10:28:16;86.97;;;34.75;;
55368;SDS011;41247;49.736;8.752;2022-12-18T10:31:58;70.15;;;30.10;;
55368;SDS011;41247;49.736;8.752;2022-12-18T10:35:40;69.60;;;29.70;;
55368;SDS011;41247;49.736;8.752;2022-12-18T10:39:23;67.90;;;28.27;;
55368;SDS011;41247;49.736;8.752;2022-12-18T10:43:05;63.45;;;27.88;;
55368;SDS011;41247;49.736;8.752;2022-12-18T10:47:02;65.70;;;27.05;;
55368;SDS011;41247;49.736;8.752;2022-12-18T10:50:46;59.03;;;26.02;;
55368;SDS011;41247;49.736;8.752;2022-12-18T10:54:29;70.85;;;29.13;;
55368;SDS011;41247;49.736;8.752;2022-12-18T11:02:34;68.80;;;29.10;;
55368;SDS011;41247;49.736;8.752;2022-12-18T11:06:19;67.55;;;28.23;;
55368;SDS011;41247;49.736;8.752;2022-12-18T11:10:02;73.00;;;29.73;;
55368;SDS011;41247;49.736;8.752;2022-12-18T11:13:47;63.58;;;27.50;;
55368;SDS011;41247;49.736;8.752;2022-12-18T11:17:46;68.30;;;27.88;;
55368;SDS011;41247;49.736;8.752;2022-12-18T11:21:30;65.18;;;27.33;;
55368;SDS011;41247;49.736;8.752;2022-12-18T11:25:20;69.88;;;29.65;;
55368;SDS011;41247;49.736;8.752;2022-12-18T11:29:08;65.88;;;29.23;;
55368;SDS011;41247;49.736;8.752;2022-12-18T11:32:56;67.72;;;28.98;;
55368;SDS011;41247;49.736;8.752;2022-12-18T11:36:42;66.90;;;28.58;;
55368;SDS011;41247;49.736;8.752;2022-12-18T11:40:27;61.90;;;25.13;;
55368;SDS011;41247;49.736;8.752;2022-12-18T11:44:22;59.33;;;24.05;;
55368;SDS011;41247;49.736;8.752;2022-12-18T11:48:26;57.88;;;24.27;;
55368;SDS011;41247;49.736;8.752;2022-12-18T11:52:19;63.60;;;26.43;;
55368;SDS011;41247;49.736;8.752;2022-12-18T12:00:18;61.22;;;26.50;;
55368;SDS011;41247;49.736;8.752;2022-12-18T12:12:26;57.85;;;23.10;;
55368;SDS011;41247;49.736;8.752;2022-12-18T12:16:53;56.55;;;24.17;;
55368;SDS011;41247;49.736;8.752;2022-12-18T12:25:08;63.50;;;26.10;;
55368;SDS011;41247;49.736;8.752;2022-12-18T12:37:08;64.63;;;26.70;;
55368;SDS011;41247;49.736;8.752;2022-12-18T12:41:25;65.43;;;27.05;;
55368;SDS011;41247;49.736;8.752;2022-12-18T12:45:16;60.30;;;23.83;;
55368;SDS011;41247;49.736;8.752;2022-12-18T12:49:04;67.20;;;27.70;;
55368;SDS011;41247;49.736;8.752;2022-12-18T12:52:54;66.78;;;25.85;;
55368;SDS011;41247;49.736;8.752;2022-12-18T12:56:39;63.97;;;25.55;;
55368;SDS011;41247;49.736;8.752;2022-12-18T13:00:34;70.30;;;28.13;;
55368;SDS011;41247;49.736;8.752;2022-12-18T13:08:26;61.97;;;25.88;;
55368;SDS011;41247;49.736;8.752;2022-12-18T13:12:11;62.92;;;26.52;;
55368;SDS011;41247;49.736;8.752;2022-12-18T13:16:05;68.95;;;26.67;;
55368;SDS011;41247;49.736;8.752;2022-12-18T13:19:51;64.45;;;26.30;;
55368;SDS011;41247;49.736;8.752;2022-12-18T13:23:50;59.28;;;24.08;;
55368;SDS011;41247;49.736;8.752;2022-12-18T13:42:58;68.65;;;24.30;;
55368;SDS011;41247;49.736;8.752;2022-12-18T13:46:43;66.30;;;25.95;;
55368;SDS011;41247;49.736;8.752;2022-12-18T13:50:26;65.93;;;25.88;;
55368;SDS011;41247;49.736;8.752;2022-12-18T13:54:24;66.53;;;25.92;;
55368;SDS011;41247;49.736;8.752;2022-12-18T13:58:13;61.35;;;25.45;;
55368;SDS011;41247;49.736;8.752;2022-12-18T14:01:58;64.80;;;25.15;;
55368;SDS011;41247;49.736;8.752;2022-12-18T14:05:45;63.85;;;24.45;;
55368;SDS011;41247;49.736;8.752;2022-12-18T14:09:37;71.97;;;27.30;;
55368;SDS011;41247;49.736;8.752;2022-12-18T14:17:15;80.22;;;29.92;;
55368;SDS011;41247;49.736;8.752;2022-12-18T14:20:57;83.72;;;28.98;;
55368;SDS011;41247;49.736;8.752;2022-12-18T14:24:40;78.97;;;28.77;;
55368;SDS011;41247;49.736;8.752;2022-12-18T14:28:21;74.53;;;28.77;;
55368;SDS011;41247;49.736;8.752;2022-12-18T14:36:00;81.13;;;28.67;;
55368;SDS011;41247;49.736;8.752;2022-12-18T14:40:00;77.55;;;29.17;;
55368;SDS011;41247;49.736;8.752;2022-12-18T14:43:44;84.90;;;30.92;;
55368;SDS011;41247;49.736;8.752;2022-12-18T14:47:27;79.97;;;28.85;;
55368;SDS011;41247;49.736;8.752;2022-12-18T14:55:15;74.80;;;27.15;;
55368;SDS011;41247;49.736;8.752;2022-12-18T14:59:00;77.40;;;27.65;;
55368;SDS011;41247;49.736;8.752;2022-12-18T15:02:47;79.97;;;28.23;;
55368;SDS011;41247;49.736;8.752;2022-12-18T15:06:34;75.63;;;25.92;;
55368;SDS011;41247;49.736;8.752;2022-12-18T15:10:18;73.25;;;26.50;;
55368;SDS011;41247;49.736;8.752;2022-12-18T15:14:22;85.20;;;28.45;;
55368;SDS011;41247;49.736;8.752;2022-12-18T15:18:21;70.70;;;25.48;;
55368;SDS011;41247;49.736;8.752;2022-12-18T15:22:20;73.78;;;25.48;;
55368;SDS011;41247;49.736;8.752;2022-12-18T15:26:06;70.25;;;25.33;;
55368;SDS011;41247;49.736;8.752;2022-12-18T15:37:33;76.53;;;24.90;;
55368;SDS011;41247;49.736;8.752;2022-12-18T15:41:15;77.40;;;25.27;;
55368;SDS011;41247;49.736;8.752;2022-12-18T15:44:58;75.90;;;26.75;;
55368;SDS011;41247;49.736;8.752;2022-12-18T15:48:39;68.30;;;23.98;;
55368;SDS011;41247;49.736;8.752;2022-12-18T15:52:22;67.45;;;23.75;;
55368;SDS011;41247;49.736;8.752;2022-12-18T15:56:04;71.38;;;22.98;;
55368;SDS011;41247;49.736;8.752;2022-12-18T15:59:47;70.15;;;24.17;;
55368;SDS011;41247;49.736;8.752;2022-12-18T16:03:28;71.80;;;24.92;;
55368;SDS011;41247;49.736;8.752;2022-12-18T16:07:09;75.55;;;24.73;;
55368;SDS011;41247;49.736;8.752;2022-12-18T16:10:50;67.97;;;22.77;;
55368;SDS011;41247;49.736;8.752;2022-12-18T16:14:31;70.70;;;24.25;;
55368;SDS011;41247;49.736;8.752;2022-12-18T16:18:12;69.57;;;23.90;;
55368;SDS011;41247;49.736;8.752;2022-12-18T16:21:53;67.60;;;24.05;;
55368;SDS011;41247;49.736;8.752;2022-12-18T16:25:36;76.18;;;26.10;;
55368;SDS011;41247;49.736;8.752;2022-12-18T16:29:17;73.63;;;25.45;;
55368;SDS011;41247;49.736;8.752;2022-12-18T16:32:59;76.97;;;26.20;;
55368;SDS011;41247;49.736;8.752;2022-12-18T16:36:39;76.82;;;27.10;;
55368;SDS011;41247;49.736;8.752;2022-12-18T16:40:20;82.28;;;27.75;;
55368;SDS011;41247;49.736;8.752;2022-12-18T16:44:01;78.22;;;27.00;;
55368;SDS011;41247;49.736;8.752;2022-12-18T16:47:42;81.43;;;27.52;;
55368;SDS011;41247;49.736;8.752;2022-12-18T16:51:23;83.82;;;26.67;;
55368;SDS011;41247;49.736;8.752;2022-12-18T16:55:05;72.88;;;25.10;;
55368;SDS011;41247;49.736;8.752;2022-12-18T16:58:50;76.00;;;25.08;;
55368;SDS011;41247;49.736;8.752;2022-12-18T17:02:32;81.63;;;26.50;;
55368;SDS011;41247;49.736;8.752;2022-12-18T17:06:13;82.03;;;25.65;;
55368;SDS011;41247;49.736;8.752;2022-12-18T17:09:54;75.43;;;25.60;;
55368;SDS011;41247;49.736;8.752;2022-12-18T17:13:34;69.43;;;24.00;;
55368;SDS011;41247;49.736;8.752;2022-12-18T17:17:15;70.80;;;26.23;;
55368;SDS011;41247;49.736;8.752;2022-12-18T17:21:02;76.40;;;25.00;;
55368;SDS011;41247;49.736;8.752;2022-12-18T17:24:45;76.32;;;25.23;;
55368;SDS011;41247;49.736;8.752;2022-12-18T17:28:26;74.82;;;24.90;;
55368;SDS011;41247;49.736;8.752;2022-12-18T17:32:08;67.95;;;25.40;;
55368;SDS011;41247;49.736;8.752;2022-12-18T17:35:48;72.28;;;24.92;;
55368;SDS011;41247;49.736;8.752;2022-12-18T17:39:29;73.40;;;25.33;;
55368;SDS011;41247;49.736;8.752;2022-12-18T17:43:10;72.45;;;25.20;;
55368;SDS011;41247;49.736;8.752;2022-12-18T17:46:53;70.72;;;25.05;;
55368;SDS011;41247;49.736;8.752;2022-12-18T17:50:34;67.43;;;23.83;;
55368;SDS011;41247;49.736;8.752;2022-12-18T17:54:15;75.25;;;26.33;;
55368;SDS011;41247;49.736;8.752;2022-12-18T17:57:56;73.53;;;25.15;;
55368;SDS011;41247;49.736;8.752;2022-12-18T18:01:36;80.13;;;26.15;;
55368;SDS011;41247;49.736;8.752;2022-12-18T18:05:17;77.50;;;26.75;;
55368;SDS011;41247;49.736;8.752;2022-12-18T18:08:58;73.63;;;25.77;;
55368;SDS011;41247;49.736;8.752;2022-12-18T18:12:38;78.00;;;27.58;;
55368;SDS011;41247;49.736;8.752;2022-12-18T18:16:19;77.97;;;27.88;;
55368;SDS011;41247;49.736;8.752;2022-12-18T18:19:59;72.88;;;25.33;;
55368;SDS011;41247;49.736;8.752;2022-12-18T18:23:40;75.47;;;26.00;;
55368;SDS011;41247;49.736;8.752;2022-12-18T18:27:21;75.40;;;25.88;;
55368;SDS011;41247;49.736;8.752;2022-12-18T18:31:05;78.07;;;26.92;;
55368;SDS011;41247;49.736;8.752;2022-12-18T18:34:47;72.93;;;25.80;;
55368;SDS011;41247;49.736;8.752;2022-12-18T18:38:27;75.00;;;27.08;;
55368;SDS011;41247;49.736;8.752;2022-12-18T18:42:09;70.35;;;27.08;;
55368;SDS011;41247;49.736;8.752;2022-12-18T18:45:53;78.38;;;28.00;;
55368;SDS011;41247;49.736;8.752;2022-12-18T18:49:35;70.00;;;27.98;;
55368;SDS011;41247;49.736;8.752;2022-12-18T18:53:16;79.85;;;30.67;;
55368;SDS011;41247;49.736;8.752;2022-12-18T18:56:56;80.57;;;30.23;;
55368;SDS011;41247;49.736;8.752;2022-12-18T19:00:37;77.95;;;27.90;;
55368;SDS011;41247;49.736;8.752;2022-12-18T19:04:17;73.05;;;26.25;;
55368;SDS011;41247;49.736;8.752;2022-12-18T19:07:58;72.93;;;26.33;;
55368;SDS011;41247;49.736;8.752;2022-12-18T19:11:39;73.50;;;26.88;;
55368;SDS011;41247;49.736;8.752;2022-12-18T19:15:20;76.07;;;27.25;;
55368;SDS011;41247;49.736;8.752;2022-12-18T19:19:00;74.43;;;27.75;;
55368;SDS011;41247;49.736;8.752;2022-12-18T19:22:42;74.35;;;27.45;;
55368;SDS011;41247;49.736;8.752;2022-12-18T19:26:23;74.53;;;27.90;;
55368;SDS011;41247;49.736;8.752;2022-12-18T19:30:04;78.78;;;28.90;;
55368;SDS011;41247;49.736;8.752;2022-12-18T19:33:45;73.55;;;27.85;;
55368;SDS011;41247;49.736;8.752;2022-12-18T19:37:26;103.82;;;37.80;;
55368;SDS011;41247;49.736;8.752;2022-12-18T19:41:07;91.70;;;34.58;;
55368;SDS011;41247;49.736;8.752;2022-12-18T19:44:48;90.97;;;34.75;;
55368;SDS011;41247;49.736;8.752;2022-12-18T19:52:13;87.50;;;32.75;;
55368;SDS011;41247;49.736;8.752;2022-12-18T19:55:55;83.13;;;30.17;;
55368;SDS011;41247;49.736;8.752;2022-12-18T19:59:36;73.93;;;26.38;;
55368;SDS011;41247;49.736;8.752;2022-12-18T20:03:17;73.43;;;28.17;;
55368;SDS011;41247;49.736;8.752;2022-12-18T20:06:57;71.40;;;26.95;;
55368;SDS011;41247;49.736;8.752;2022-12-18T20:10:38;78.70;;;27.25;;
55368;SDS011;41247;49.736;8.752;2022-12-18T20:14:19;68.38;;;25.90;;
55368;SDS011;41247;49.736;8.752;2022-12-18T20:17:59;74.35;;;28.58;;
55368;SDS011;41247;49.736;8.752;2022-12-18T20:21:40;71.90;;;27.17;;
55368;SDS011;41247;49.736;8.752;2022-12-18T20:25:20;70.25;;;25.92;;
55368;SDS011;41247;49.736;8.752;2022-12-18T20:29:01;70.65;;;25.48;;
55368;SDS011;41247;49.736;8.752;2022-12-18T20:32:42;64.40;;;24.70;;
55368;SDS011;41247;49.736;8.752;2022-12-18T20:36:22;69.00;;;25.23;;
55368;SDS011;41247;49.736;8.752;2022-12-18T20:40:03;65.97;;;25.83;;
55368;SDS011;41247;49.736;8.752;2022-12-18T20:43:45;70.93;;;24.65;;
55368;SDS011;41247;49.736;8.752;2022-12-18T20:47:26;73.60;;;26.58;;
55368;SDS011;41247;49.736;8.752;2022-12-18T20:51:07;75.45;;;26.75;;
55368;SDS011;41247;49.736;8.752;2022-12-18T20:54:50;95.30;;;37.45;;
55368;SDS011;41247;49.736;8.752;2022-12-18T20:58:31;90.70;;;34.88;;
55368;SDS011;41247;49.736;8.752;2022-12-18T21:02:12;84.93;;;31.58;;
55368;SDS011;41247;49.736;8.752;2022-12-18T21:05:53;82.03;;;31.23;;
55368;SDS011;41247;49.736;8.752;2022-12-18T21:09:33;86.15;;;33.22;;
55368;SDS011;41247;49.736;8.752;2022-12-18T21:13:14;85.47;;;32.22;;
55368;SDS011;41247;49.736;8.752;2022-12-18T21:16:54;83.20;;;30.60;;
55368;SDS011;41247;49.736;8.752;2022-12-18T21:20:36;85.05;;;32.70;;
55368;SDS011;41247;49.736;8.752;2022-12-18T21:24:17;106.50;;;40.15;;
55368;SDS011;41247;49.736;8.752;2022-12-18T21:27:58;93.78;;;35.15;;
55368;SDS011;41247;49.736;8.752;2022-12-18T21:31:41;94.05;;;36.30;;
55368;SDS011;41247;49.736;8.752;2022-12-18T21:35:22;84.95;;;33.45;;
55368;SDS011;41247;49.736;8.752;2022-12-18T21:39:03;82.88;;;31.83;;
55368;SDS011;41247;49.736;8.752;2022-12-18T21:46:29;83.85;;;32.47;;
55368;SDS011;41247;49.736;8.752;2022-12-18T21:50:12;81.43;;;31.75;;
55368;SDS011;41247;49.736;8.752;2022-12-18T21:53:59;80.45;;;31.42;;
55368;SDS011;41247;49.736;8.752;2022-12-18T21:57:40;79.68;;;29.77;;
55368;SDS011;41247;49.736;8.752;2022-12-18T22:01:21;83.55;;;31.05;;
55368;SDS011;41247;49.736;8.752;2022-12-18T22:05:01;106.38;;;43.75;;
55368;SDS011;41247;49.736;8.752;2022-12-18T22:08:42;100.97;;;39.65;;
55368;SDS011;41247;49.736;8.752;2022-12-18T22:12:22;96.20;;;38.30;;
55368;SDS011;41247;49.736;8.752;2022-12-18T22:16:03;83.97;;;33.53;;
55368;SDS011;41247;49.736;8.752;2022-12-18T22:19:44;88.15;;;33.78;;
55368;SDS011;41247;49.736;8.752;2022-12-18T22:23:24;90.90;;;33.75;;
55368;SDS011;41247;49.736;8.752;2022-12-18T22:27:05;91.97;;;35.33;;
55368;SDS011;41247;49.736;8.752;2022-12-18T22:30:47;87.35;;;33.90;;
55368;SDS011;41247;49.736;8.752;2022-12-18T22:34:28;87.15;;;32.60;;
55368;SDS011;41247;49.736;8.752;2022-12-18T22:38:09;84.88;;;32.92;;
55368;SDS011;41247;49.736;8.752;2022-12-18T22:41:49;79.95;;;30.27;;
55368;SDS011;41247;49.736;8.752;2022-12-18T22:45:30;79.88;;;30.52;;
55368;SDS011;41247;49.736;8.752;2022-12-18T22:49:12;77.75;;;29.35;;
55368;SDS011;41247;49.736;8.752;2022-12-18T22:52:54;77.07;;;28.90;;
55368;SDS011;41247;49.736;8.752;2022-12-18T22:56:35;84.95;;;31.70;;
55368;SDS011;41247;49.736;8.752;2022-12-18T23:00:16;76.75;;;30.05;;
55368;SDS011;41247;49.736;8.752;2022-12-18T23:03:57;81.70;;;31.75;;
55368;SDS011;41247;49.736;8.752;2022-12-18T23:07:38;89.70;;;35.03;;
55368;SDS011;41247;49.736;8.752;2022-12-18T23:11:19;94.40;;;35.83;;
55368;SDS011;41247;49.736;8.752;2022-12-18T23:14:59;76.90;;;30.58;;
55368;SDS011;41247;49.736;8.752;2022-12-18T23:18:40;76.38;;;29.30;;
55368;SDS011;41247;49.736;8.752;2022-12-18T23:22:22;79.88;;;29.75;;
55368;SDS011;41247;49.736;8.752;2022-12-18T23:26:07;75.18;;;29.20;;
55368;SDS011;41247;49.736;8.752;2022-12-18T23:29:49;81.07;;;30.77;;
55368;SDS011;41247;49.736;8.752;2022-12-18T23:33:30;84.78;;;34.47;;
55368;SDS011;41247;49.736;8.752;2022-12-18T23:37:10;95.78;;;35.58;;
55368;SDS011;41247;49.736;8.752;2022-12-18T23:40:51;93.15;;;35.33;;
55368;SDS011;41247;49.736;8.752;2022-12-18T23:44:32;98.95;;;35.97;;
55368;SDS011;41247;49.736;8.752;2022-12-18T23:48:12;96.20;;;35.00;;
55368;SDS011;41247;49.736;8.752;2022-12-18T23:51:53;85.47;;;32.55;;